Time;durP1;ratioP1;P1;durP2;ratioP2;P2;SDS_P1;SDS_P2;PMS_P1;PMS_P2;Temp;Humidity;BMP_temperature;BMP_pressure;BME280_temperature;BME280_humidity;BME280_pressure;Samples;Min_cycle;Max_cycle;Signal;HPM_P1;HPM_P2
2022/11/08 00:03:15;;;;;;;8.20;0.82;;;13.50;99.90;;;;;;5008370;28;20053;-63
2022/11/08 00:14:03;;;;;;;4.32;0.93;;;13.00;99.90;;;;;;5011540;28;20042;-71
2022/11/08 00:16:33;;;;;;;8.65;1.67;;;12.90;99.90;;;;;;5010117;28;20433;-60
2022/11/08 00:19:01;;;;;;;8.40;1.08;;;12.70;99.90;;;;;;5017135;28;20520;-68
2022/11/08 00:21:29;;;;;;;4.07;0.82;;;12.70;99.90;;;;;;5019626;28;20038;-67
2022/11/08 00:23:56;;;;;;;3.58;1.05;;;12.70;99.90;;;;;;5014827;28;20046;-67
2022/11/08 00:26:24;;;;;;;5.93;1.10;;;12.70;99.90;;;;;;5015590;28;20061;-62
2022/11/08 00:28:51;;;;;;;3.67;1.02;;;12.70;99.90;;;;;;5015485;28;20053;-62
2022/11/08 00:31:19;;;;;;;4.78;1.52;;;12.60;99.90;;;;;;5007273;28;20049;-62
2022/11/08 00:33:47;;;;;;;3.03;0.80;;;12.60;99.90;;;;;;5014073;28;20050;-61
2022/11/08 00:36:15;;;;;;;16.50;1.58;;;12.60;99.90;;;;;;5007403;28;20049;-74
2022/11/08 00:38:43;;;;;;;2.78;0.70;;;12.50;99.90;;;;;;4990172;28;20056;-74
2022/11/08 00:41:11;;;;;;;5.90;0.70;;;12.20;99.90;;;;;;5009675;28;20050;-73
2022/11/08 00:43:39;;;;;;;2.85;0.57;;;11.90;99.90;;;;;;5028856;28;20045;-73
2022/11/08 00:46:06;;;;;;;2.53;0.43;;;11.60;99.90;;;;;;5027491;28;20046;-74
2022/11/08 00:48:34;;;;;;;7.43;0.57;;;11.40;99.90;;;;;;5015606;28;20053;-66
2022/11/08 00:51:04;;;;;;;5.35;0.70;;;11.30;99.90;;;;;;5009028;28;20053;-71
2022/11/08 00:53:32;;;;;;;3.40;0.47;;;11.10;99.90;;;;;;5027562;28;20536;-64
2022/11/08 00:56:02;;;;;;;1.02;0.30;;;11.10;99.90;;;;;;5020763;28;20050;-61
2022/11/08 00:58:30;;;;;;;1.85;0.30;;;;;;;;;;5026528;28;20409;-61
2022/11/08 01:00:58;;;;;;;4.28;0.45;;;10.80;99.90;;;;;;5022053;28;20054;-61
2022/11/08 01:03:26;;;;;;;1.75;0.30;;;10.70;99.90;;;;;;5021554;28;20056;-60
2022/11/08 01:05:53;;;;;;;3.20;0.40;;;10.70;99.90;;;;;;5006640;28;20482;-63
2022/11/08 01:08:23;;;;;;;1.52;0.30;;;10.70;99.90;;;;;;5014179;28;20062;-61
2022/11/08 01:10:51;;;;;;;4.60;0.85;;;10.60;99.90;;;;;;4979443;28;20056;-61
2022/11/08 01:13:20;;;;;;;3.42;0.47;;;10.60;99.90;;;;;;5014091;28;20052;-60
2022/11/08 01:16:16;;;;;;;1.38;0.20;;;10.50;99.90;;;;;;5016783;28;20037;-65
2022/11/08 01:18:44;;;;;;;2.40;0.40;;;10.50;99.90;;;;;;5020239;28;20049;-62
2022/11/08 01:21:13;;;;;;;2.03;0.50;;;10.40;99.90;;;;;;5020932;28;20603;-72
2022/11/08 01:23:41;;;;;;;2.25;0.50;;;10.40;99.90;;;;;;5016507;28;20046;-73
2022/11/08 01:26:13;;;;;;;2.67;0.55;;;10.40;99.90;;;;;;5026450;28;20049;-70
2022/11/08 01:28:41;;;;;;;3.92;0.52;;;10.30;99.90;;;;;;5016437;28;20052;-72
2022/11/08 01:31:11;;;;;;;3.13;0.40;;;10.30;99.90;;;;;;5016282;28;20517;-61
2022/11/08 01:33:39;;;;;;;3.67;0.70;;;10.30;99.90;;;;;;5023930;28;20053;-64
2022/11/08 01:36:09;;;;;;;13.73;2.13;;;10.30;99.90;;;;;;5019708;28;20038;-71
2022/11/08 01:38:37;;;;;;;3.47;0.45;;;10.30;99.90;;;;;;5012480;28;20482;-69
2022/11/08 01:41:06;;;;;;;4.20;0.70;;;10.30;99.90;;;;;;5013525;28;20053;-59
2022/11/08 01:43:45;;;;;;;9.05;0.70;;;10.20;99.90;;;;;;5015179;28;20053;-65
2022/11/08 01:46:22;;;;;;;0.88;0.50;;;10.20;99.90;;;;;;5022198;28;20062;-61
2022/11/08 01:49:26;;;;;;;2.58;0.52;;;10.20;99.90;;;;;;5025654;28;20049;-62
2022/11/08 01:52:13;;;;;;;4.57;0.55;;;10.20;99.90;;;;;;5013995;28;20068;-69
2022/11/08 01:54:54;;;;;;;5.45;0.70;;;10.20;99.90;;;;;;5021509;28;20053;-70
2022/11/08 01:57:26;;;;;;;6.25;0.70;;;10.20;99.90;;;;;;5023820;28;20045;-71
2022/11/08 01:59:57;;;;;;;5.53;0.68;;;10.10;99.90;;;;;;5012969;28;20042;-70
2022/11/08 02:02:26;;;;;;;8.18;0.85;;;10.10;99.90;;;;;;5019630;28;20033;-71
2022/11/08 02:04:54;;;;;;;7.15;0.70;;;10.10;99.90;;;;;;5014720;28;20512;-68
2022/11/08 02:07:23;;;;;;;4.57;0.57;;;10.10;99.90;;;;;;5014708;28;20042;-69
2022/11/08 02:09:51;;;;;;;8.43;0.70;;;10.10;99.90;;;;;;5015871;28;20053;-70
2022/11/08 02:12:21;;;;;;;2.65;0.35;;;10.10;99.90;;;;;;5014227;28;20060;-71
2022/11/08 02:14:48;;;;;;;6.22;0.70;;;10.10;99.90;;;;;;5023259;28;20968;-63
2022/11/08 02:17:16;;;;;;;4.93;1.30;;;10.00;99.90;;;;;;5011770;28;20073;-69
2022/11/08 02:19:49;;;;;;;5.88;0.93;;;10.00;99.90;;;;;;5009249;28;20057;-71
2022/11/08 02:22:26;;;;;;;3.42;0.70;;;10.00;99.90;;;;;;5008377;28;20592;-72
2022/11/08 02:24:57;;;;;;;6.30;1.02;;;10.00;99.90;;;;;;5020097;28;20509;-65
2022/11/08 02:27:25;;;;;;;1.20;0.47;;;9.90;99.90;;;;;;5008620;28;20045;-62
2022/11/08 02:29:53;;;;;;;1.95;0.38;;;9.90;99.90;;;;;;5009012;28;20053;-62
2022/11/08 02:32:23;;;;;;;4.63;0.85;;;9.90;99.90;;;;;;5013375;28;20060;-63
2022/11/08 02:34:55;;;;;;;4.05;0.98;;;9.80;99.90;;;;;;5027535;28;20042;-62
2022/11/08 02:37:24;;;;;;;3.47;0.45;;;9.80;99.90;;;;;;5026455;28;20074;-67
2022/11/08 02:39:52;;;;;;;5.70;0.52;;;9.80;99.90;;;;;;5012266;28;20048;-62
2022/11/08 02:42:20;;;;;;;3.38;0.50;;;9.80;99.90;;;;;;5013796;28;20041;-61
2022/11/08 02:44:47;;;;;;;2.17;0.63;;;9.70;99.90;;;;;;5013983;28;20050;-64
2022/11/08 02:47:15;;;;;;;3.10;0.30;;;9.70;99.90;;;;;;5021008;28;20045;-61
2022/11/08 02:49:43;;;;;;;4.28;0.40;;;9.70;99.90;;;;;;5018110;28;20064;-62
2022/11/08 02:52:10;;;;;;;5.72;0.75;;;9.70;99.90;;;;;;5028648;28;20041;-60
2022/11/08 02:54:38;;;;;;;3.67;0.75;;;9.60;99.90;;;;;;5015959;28;20050;-60
2022/11/08 02:57:06;;;;;;;8.63;0.68;;;9.60;99.90;;;;;;5012936;28;20046;-60
2022/11/08 02:59:33;;;;;;;5.05;0.40;;;9.60;99.90;;;;;;5023416;28;20046;-60
2022/11/08 03:02:01;;;;;;;2.55;0.45;;;9.60;99.90;;;;;;5011092;28;20042;-62
2022/11/08 03:04:28;;;;;;;7.70;0.80;;;9.60;99.90;;;;;;5029820;28;20508;-65
2022/11/08 03:06:56;;;;;;;8.57;1.38;;;9.60;99.90;;;;;;5030886;28;20045;-64
2022/11/08 03:09:25;;;;;;;4.97;0.30;;;9.60;99.90;;;;;;5031591;28;20060;-64
2022/11/08 03:11:53;;;;;;;6.65;0.70;;;9.60;99.90;;;;;;5031271;28;20053;-61
2022/11/08 03:14:21;;;;;;;3.08;0.40;;;9.50;99.90;;;;;;5031135;28;20045;-60
2022/11/08 03:16:48;;;;;;;2.10;0.47;;;9.60;99.90;;;;;;5030386;28;20041;-64
2022/11/08 03:19:16;;;;;;;8.20;0.77;;;9.50;99.90;;;;;;5031196;28;20048;-64
2022/11/08 03:21:43;;;;;;;4.22;0.80;;;9.50;99.90;;;;;;5031454;28;20056;-60
2022/11/08 03:24:11;;;;;;;2.25;0.57;;;9.50;99.90;;;;;;5031181;28;20049;-63
2022/11/08 03:26:39;;;;;;;3.47;0.25;;;9.50;99.90;;;;;;5031003;28;20041;-60
2022/11/08 03:29:06;;;;;;;5.53;0.45;;;9.50;99.90;;;;;;5031318;28;20401;-62
2022/11/08 03:31:34;;;;;;;4.38;0.65;;;9.40;99.90;;;;;;5029823;28;20057;-61
2022/11/08 03:34:01;;;;;;;6.63;1.40;;;9.40;99.90;;;;;;5030975;28;20401;-62
2022/11/08 03:36:29;;;;;;;5.45;0.50;;;9.40;99.90;;;;;;5031188;28;20528;-61
2022/11/08 03:38:56;;;;;;;8.00;0.70;;;9.30;99.90;;;;;;5030947;28;20049;-63
2022/11/08 03:41:24;;;;;;;7.18;0.70;;;9.30;99.90;;;;;;5030931;28;20053;-64
2022/11/08 03:43:52;;;;;;;6.55;0.50;;;9.30;99.90;;;;;;5031172;28;20056;-62
2022/11/08 03:46:19;;;;;;;2.13;0.43;;;9.20;99.90;;;;;;5030952;28;20409;-60
2022/11/08 03:48:47;;;;;;;6.57;0.60;;;9.20;99.90;;;;;;5031093;28;20057;-59
2022/11/08 03:51:14;;;;;;;0.95;0.50;;;9.20;99.90;;;;;;5031103;28;20050;-61
2022/11/08 03:53:42;;;;;;;4.10;1.08;;;9.20;99.90;;;;;;5031856;28;20057;-62
2022/11/08 03:56:10;;;;;;;2.40;0.50;;;9.10;99.90;;;;;;5033326;28;20060;-60
2022/11/08 03:58:37;;;;;;;4.32;0.50;;;9.10;99.90;;;;;;5034499;28;20064;-61
2022/11/08 04:01:05;;;;;;;7.32;0.57;;;9.10;99.90;;;;;;5034667;28;20049;-60
2022/11/08 04:03:33;;;;;;;4.53;0.35;;;9.10;99.90;;;;;;5017236;28;20054;-60
2022/11/08 04:06:01;;;;;;;3.78;0.40;;;9.00;99.90;;;;;;5014748;28;20049;-61
2022/11/08 04:08:29;;;;;;;5.05;0.50;;;9.00;99.90;;;;;;5014892;28;20057;-64
2022/11/08 04:15:13;;;;;;;4.63;0.52;;;9.00;99.90;;;;;;5014444;28;20499;-62
2022/11/08 04:16:34;;;;;;;2.42;0.45;;;8.90;99.90;;;;;;5014789;28;20069;-65
2022/11/08 04:21:51;;;;;;;2.88;0.50;;;8.90;99.90;;;;;;5014482;28;20046;-62
2022/11/08 04:24:19;;;;;;;1.60;0.30;;;8.90;99.90;;;;;;5014390;28;20498;-63
2022/11/08 04:26:46;;;;;;;3.97;0.57;;;8.80;99.90;;;;;;5013833;28;20504;-61
2022/11/08 04:29:14;;;;;;;11.48;1.25;;;8.80;99.90;;;;;;5034361;28;20465;-61
2022/11/08 04:31:41;;;;;;;2.50;0.50;;;8.80;99.90;;;;;;5034346;28;20050;-59
2022/11/08 04:34:09;;;;;;;6.22;0.73;;;8.80;99.90;;;;;;5033995;28;20060;-61
2022/11/08 04:36:37;;;;;;;2.50;0.90;;;8.70;99.90;;;;;;5033961;28;20045;-59
2022/11/08 04:39:04;;;;;;;1.70;0.43;;;8.70;99.90;;;;;;5032764;28;20046;-60
2022/11/08 04:41:32;;;;;;;6.28;0.50;;;8.60;99.90;;;;;;5033729;28;20497;-63
2022/11/08 04:44:00;;;;;;;5.07;0.70;;;8.60;99.90;;;;;;5033730;28;20050;-62
2022/11/08 04:46:28;;;;;;;5.05;0.50;;;8.60;99.90;;;;;;5033515;28;20054;-60
2022/11/08 04:48:58;;;;;;;2.47;0.43;;;8.60;99.90;;;;;;5033579;28;20041;-63
2022/11/08 04:51:29;;;;;;;1.98;0.30;;;8.50;99.90;;;;;;5032441;28;20041;-60
2022/11/08 04:54:01;;;;;;;2.42;1.00;;;8.50;99.90;;;;;;5032624;28;20053;-60
2022/11/08 04:56:29;;;;;;;6.95;1.30;;;8.50;99.90;;;;;;5031261;28;20057;-60
2022/11/08 04:58:58;;;;;;;4.53;0.60;;;8.50;99.90;;;;;;5033479;28;20045;-60
2022/11/08 05:01:29;;;;;;;1.65;0.40;;;8.50;99.90;;;;;;5032358;28;20053;-60
2022/11/08 05:03:57;;;;;;;4.25;0.73;;;8.50;99.90;;;;;;5033570;28;20049;-60
2022/11/08 05:06:27;;;;;;;7.18;0.70;;;8.50;99.90;;;;;;5032719;28;20543;-60
2022/11/08 05:08:55;;;;;;;;;;;8.50;99.90;;;;;;5033958;28;20056;-61
2022/11/08 05:11:25;;;;;;;2.45;0.68;;;8.50;99.90;;;;;;5033223;28;19996;-67
2022/11/08 05:13:53;;;;;;;2.72;0.65;;;8.50;99.90;;;;;;5031931;28;20053;-63
2022/11/08 05:16:29;;;;;;;2.42;0.50;;;8.50;99.90;;;;;;5033003;28;20045;-62
2022/11/08 05:18:57;;;;;;;4.03;0.73;;;8.50;99.90;;;;;;5014876;28;20045;-62
2022/11/08 05:24:13;;;;;;;4.47;0.82;;;8.40;99.90;;;;;;5012403;28;20072;-61
2022/11/08 05:26:41;;;;;;;;;;;8.40;99.90;;;;;;5014189;28;20558;-60
2022/11/08 05:29:10;;;;;;;6.78;0.93;;;8.40;99.90;;;;;;5029218;28;19920;-60
2022/11/08 05:31:37;;;;;;;3.88;0.60;;;8.40;99.90;;;;;;5029640;28;20053;-65
2022/11/08 05:34:06;;;;;;;1.55;0.50;;;8.40;99.90;;;;;;5014099;28;20540;-60
2022/11/08 05:36:33;;;;;;;5.90;0.60;;;8.40;99.90;;;;;;5030781;28;20049;-63
2022/11/08 05:39:02;;;;;;;5.47;0.80;;;8.50;99.90;;;;;;5029706;28;20045;-63
2022/11/08 05:41:29;;;;;;;4.63;0.65;;;8.50;99.90;;;;;;5032469;28;20057;-60
2022/11/08 05:43:57;;;;;;;1.83;0.70;;;8.60;99.90;;;;;;5032634;28;20362;-62
2022/11/08 05:46:24;;;;;;;3.80;0.68;;;8.60;99.90;;;;;;5032421;28;20382;-61
2022/11/08 05:48:53;;;;;;;3.72;0.65;;;8.60;99.90;;;;;;5022958;28;20045;-61
2022/11/08 05:51:20;;;;;;;5.78;1.90;;;8.60;99.90;;;;;;5028170;28;20046;-61
2022/11/08 05:53:49;;;;;;;1.60;0.47;;;8.60;99.90;;;;;;5029318;28;20048;-61
2022/11/08 05:56:17;;;;;;;1.48;0.65;;;8.60;99.90;;;;;;5025537;28;20053;-61
2022/11/08 05:58:45;;;;;;;5.15;0.60;;;8.60;99.90;;;;;;5028868;28;20052;-61
2022/11/08 06:01:15;;;;;;;1.05;0.25;;;8.50;99.90;;;;;;5029047;28;20045;-61
2022/11/08 06:03:43;;;;;;;2.67;0.55;;;8.50;99.90;;;;;;5006060;28;20038;-60
2022/11/08 06:06:14;;;;;;;4.93;0.55;;;8.50;99.90;;;;;;5005733;28;20053;-61
2022/11/08 06:08:42;;;;;;;4.03;0.65;;;8.50;99.90;;;;;;5020210;28;20053;-62
2022/11/08 06:11:24;;;;;;;6.47;0.50;;;8.50;99.90;;;;;;5028833;28;20049;-62
2022/11/08 06:13:52;;;;;;;4.72;0.40;;;8.50;99.90;;;;;;5028547;28;20041;-60
2022/11/08 06:16:22;;;;;;;1.70;0.55;;;8.50;99.90;;;;;;5028658;28;20089;-60
2022/11/08 06:18:50;;;;;;;2.47;0.65;;;;;;;;;;5015739;28;20056;-61
2022/11/08 06:21:19;;;;;;;5.82;0.70;;;8.50;99.90;;;;;;5008979;28;20536;-61
2022/11/08 06:23:50;;;;;;;13.43;0.93;;;8.50;99.90;;;;;;5021071;28;20488;-60
2022/11/08 06:26:17;;;;;;;6.40;1.02;;;8.50;99.90;;;;;;5025269;28;20295;-60
2022/11/08 06:28:45;;;;;;;3.47;0.57;;;8.50;99.90;;;;;;5023490;28;20056;-60
2022/11/08 06:31:13;;;;;;;1.65;0.52;;;8.40;99.90;;;;;;5025464;28;20034;-60
2022/11/08 06:33:40;;;;;;;6.13;1.08;;;8.40;99.90;;;;;;5015372;28;20057;-61
2022/11/08 06:36:08;;;;;;;6.05;1.20;;;8.40;99.90;;;;;;5006191;28;20399;-60
2022/11/08 06:38:36;;;;;;;4.25;0.60;;;8.40;99.90;;;;;;5021313;28;20497;-62
2022/11/08 06:41:03;;;;;;;7.25;0.93;;;8.40;99.90;;;;;;5027224;28;20056;-62
2022/11/08 06:43:31;;;;;;;3.83;0.60;;;8.40;99.90;;;;;;5019435;28;20099;-61
2022/11/08 06:46:02;;;;;;;5.28;0.70;;;8.40;99.90;;;;;;5025699;28;20049;-62
2022/11/08 06:48:30;;;;;;;5.75;0.90;;;8.40;99.90;;;;;;5020724;28;20042;-68
2022/11/08 06:51:03;;;;;;;1.00;0.47;;;8.40;99.90;;;;;;5008717;28;20053;-62
2022/11/08 06:53:32;;;;;;;4.78;0.82;;;8.40;99.90;;;;;;5020622;28;20045;-63
2022/11/08 06:56:01;;;;;;;7.15;0.98;;;8.40;99.90;;;;;;5025865;28;20049;-60
2022/11/08 06:58:29;;;;;;;8.48;0.60;;;8.40;99.90;;;;;;5023176;28;20046;-64
2022/11/08 07:01:01;;;;;;;4.03;0.90;;;8.40;99.90;;;;;;5025415;28;20045;-62
2022/11/08 07:03:32;;;;;;;5.15;1.65;;;8.40;99.90;;;;;;5017732;28;20053;-65
2022/11/08 07:06:04;;;;;;;36.75;2.13;;;8.40;99.90;;;;;;5006090;28;20053;-65
2022/11/08 07:08:33;;;;;;;6.30;0.88;;;8.40;99.90;;;;;;5018946;28;20060;-67
2022/11/08 07:11:02;;;;;;;6.90;1.10;;;8.40;99.90;;;;;;5010616;28;20053;-62
2022/11/08 07:13:29;;;;;;;9.27;0.90;;;8.50;99.90;;;;;;5026796;28;20045;-71
2022/11/08 07:15:58;;;;;;;3.10;0.70;;;8.50;99.90;;;;;;5026420;28;20050;-61
2022/11/08 07:18:27;;;;;;;5.57;0.90;;;8.50;99.90;;;;;;5020002;28;20510;-64
2022/11/08 07:21:01;;;;;;;5.32;1.42;;;8.50;99.90;;;;;;5013468;28;20064;-63
2022/11/08 07:23:30;;;;;;;9.07;1.67;;;8.70;99.90;;;;;;5027821;28;20050;-72
2022/11/08 07:26:03;;;;;;;16.27;1.33;;;8.70;99.90;;;;;;5027867;28;20054;-72
2022/11/08 07:28:31;;;;;;;4.38;0.70;;;8.70;99.90;;;;;;5027005;28;20050;-71
2022/11/08 07:31:03;;;;;;;8.63;1.38;;;8.80;99.90;;;;;;5024894;28;20409;-69
2022/11/08 07:33:31;;;;;;;12.20;1.40;;;8.80;99.90;;;;;;5017682;28;20117;-71
2022/11/08 07:35:59;;;;;;;13.30;1.40;;;8.90;99.90;;;;;;5019301;28;20042;-63
2022/11/08 07:38:27;;;;;;;15.18;1.00;;;8.90;99.90;;;;;;5012320;28;20421;-73
2022/11/08 07:40:56;;;;;;;13.15;1.50;;;8.90;99.90;;;;;;5029100;28;20045;-68
2022/11/08 07:43:26;;;;;;;11.82;1.90;;;8.90;99.90;;;;;;5022856;28;20041;-71
2022/11/08 07:45:59;;;;;;;11.07;1.30;;;9.00;99.90;;;;;;5011015;28;20057;-72
2022/11/08 07:48:28;;;;;;;6.03;1.10;;;9.00;99.90;;;;;;5022848;28;20049;-72
2022/11/08 07:50:56;;;;;;;8.50;1.73;;;9.00;99.90;;;;;;5019790;28;20825;-65
2022/11/08 07:53:24;;;;;;;13.77;1.50;;;9.00;99.90;;;;;;5020824;28;20049;-63
2022/11/08 07:55:52;;;;;;;16.20;2.45;;;9.10;99.90;;;;;;5027263;28;20045;-66
2022/11/08 07:58:20;;;;;;;13.82;3.15;;;9.20;99.90;;;;;;5018050;28;20053;-62
2022/11/08 08:00:48;;;;;;;11.45;1.67;;;9.20;99.90;;;;;;5013792;28;20045;-64
2022/11/08 08:03:17;;;;;;;15.65;2.03;;;9.20;99.90;;;;;;5017447;28;20501;-61
2022/11/08 08:05:51;;;;;;;17.85;1.77;;;9.20;99.90;;;;;;5006989;28;20045;-62
2022/11/08 08:08:26;;;;;;;7.05;1.30;;;9.30;99.90;;;;;;5020928;28;20054;-60
2022/11/08 08:11:01;;;;;;;22.65;2.20;;;9.30;99.90;;;;;;5017597;28;20050;-61
2022/11/08 08:13:28;;;;;;;13.52;1.63;;;9.30;99.90;;;;;;5014717;28;20038;-63
2022/11/08 08:15:58;;;;;;;13.35;1.83;;;9.40;99.90;;;;;;5019239;28;20401;-60
2022/11/08 08:18:27;;;;;;;21.92;1.88;;;9.50;99.90;;;;;;5012855;28;20053;-60
2022/11/08 08:20:55;;;;;;;42.03;3.23;;;9.50;99.90;;;;;;5011685;28;20049;-60
2022/11/08 08:23:23;;;;;;;21.10;2.50;;;9.60;99.90;;;;;;5015472;28;20299;-60
2022/11/08 08:25:51;;;;;;;19.00;2.83;;;9.70;99.90;;;;;;5012786;28;20398;-60
2022/11/08 08:28:19;;;;;;;15.52;2.67;;;9.70;99.90;;;;;;5017359;28;20057;-61
2022/11/08 08:30:46;;;;;;;17.35;1.48;;;9.70;99.90;;;;;;5006699;28;20046;-60
2022/11/08 08:33:15;;;;;;;15.45;1.85;;;9.80;99.90;;;;;;5020965;28;20050;-60
2022/11/08 08:36:02;;;;;;;13.85;1.98;;;9.90;99.90;;;;;;5024090;28;20053;-60
2022/11/08 08:38:32;;;;;;;18.15;1.70;;;10.10;99.90;;;;;;5019072;28;20053;-62
2022/11/08 08:41:01;;;;;;;15.93;1.93;;;9.90;99.90;;;;;;5029725;28;20048;-62
2022/11/08 08:43:31;;;;;;;15.60;2.47;;;10.00;99.90;;;;;;5030035;28;20046;-63
2022/11/08 08:46:01;;;;;;;26.63;2.53;;;10.00;99.90;;;;;;5029394;28;20058;-60
2022/11/08 08:48:29;;;;;;;;;;;10.00;99.90;;;;;;5030927;28;20049;-59
2022/11/08 08:50:58;;;;;;;24.33;2.75;;;10.10;99.90;;;;;;5025045;28;19925;-60
2022/11/08 08:53:26;;;;;;;16.95;1.77;;;10.10;99.90;;;;;;5025167;28;20041;-60
2022/11/08 08:55:53;;;;;;;14.63;1.73;;;10.10;99.90;;;;;;5029388;28;20046;-61
2022/11/08 08:58:22;;;;;;;11.43;2.03;;;10.10;99.90;;;;;;5029837;28;20038;-60
2022/11/08 09:00:49;;;;;;;19.35;2.20;;;10.10;99.90;;;;;;5030256;28;20060;-61
2022/11/08 09:03:37;;;;;;;27.30;2.28;;;10.10;99.90;;;;;;5027645;28;20038;-59
2022/11/08 09:06:04;;;;;;;12.63;2.05;;;10.20;99.90;;;;;;5021129;28;20056;-59
2022/11/08 09:08:32;;;;;;;23.20;2.83;;;10.20;99.90;;;;;;5011855;28;20050;-61
2022/11/08 09:11:00;;;;;;;19.02;2.22;;;10.20;99.90;;;;;;5028156;28;20053;-60
2022/11/08 09:13:31;;;;;;;18.08;2.40;;;10.20;99.90;;;;;;5028513;28;20045;-63
2022/11/08 09:16:01;;;;;;;14.18;2.35;;;10.30;99.90;;;;;;5029724;28;20045;-60
2022/11/08 09:18:30;;;;;;;15.95;2.33;;;10.30;99.90;;;;;;5028499;28;20052;-62
2022/11/08 09:20:58;;;;;;;17.77;2.42;;;10.30;99.90;;;;;;5027564;28;20042;-66
2022/11/08 09:23:26;;;;;;;19.05;2.22;;;10.30;99.90;;;;;;5029692;28;20068;-61
2022/11/08 09:25:58;;;;;;;16.83;3.15;;;10.40;99.90;;;;;;5029650;28;20068;-66
2022/11/08 09:28:28;;;;;;;28.85;3.72;;;10.40;99.90;;;;;;5024333;28;20045;-66
2022/11/08 09:31:03;;;;;;;20.30;2.17;;;10.50;99.90;;;;;;5027835;28;20064;-67
2022/11/08 09:33:32;;;;;;;16.20;2.17;;;10.60;99.90;;;;;;5029516;28;20595;-70
2022/11/08 09:36:00;;;;;;;15.43;2.03;;;10.60;99.90;;;;;;5023408;28;20049;-72
2022/11/08 09:38:28;;;;;;;19.65;2.03;;;10.70;99.90;;;;;;5019456;28;20052;-60
2022/11/08 09:41:14;;;;;;;17.27;2.42;;;10.80;99.90;;;;;;5015712;28;20378;-61
2022/11/08 09:44:00;;;;;;;17.33;2.47;;;10.80;99.90;;;;;;5023527;28;20048;-63
2022/11/08 09:46:49;;;;;;;20.85;2.80;;;10.90;99.90;;;;;;5013512;28;20050;-59
2022/11/08 09:49:23;;;;;;;21.83;3.75;;;10.90;99.90;;;;;;5023815;28;20058;-59
2022/11/08 09:51:50;;;;;;;14.20;2.17;;;10.90;99.90;;;;;;5021386;28;20045;-62
2022/11/08 09:54:33;;;;;;;17.92;1.80;;;11.10;99.90;;;;;;5013253;28;20061;-60
2022/11/08 09:57:04;;;;;;;23.27;2.83;;;11.00;99.90;;;;;;5011804;28;20504;-62
2022/11/08 09:59:35;;;;;;;23.35;2.60;;;11.20;99.90;;;;;;5021581;28;20037;-60
2022/11/08 10:02:17;;;;;;;19.67;1.65;;;11.20;99.90;;;;;;5018434;28;20053;-60
2022/11/08 10:04:54;;;;;;;23.48;2.60;;;11.20;99.90;;;;;;5016105;28;20042;-60
2022/11/08 10:07:59;;;;;;;17.13;2.50;;;11.30;99.90;;;;;;5010765;28;20497;-61
2022/11/08 10:10:34;;;;;;;14.90;2.75;;;11.40;99.90;;;;;;5006088;28;20058;-63
2022/11/08 10:13:12;;;;;;;22.10;2.80;;;11.40;99.90;;;;;;5013145;28;20046;-59
2022/11/08 10:15:52;;;;;;;25.65;2.38;;;11.40;99.90;;;;;;5015214;28;20045;-59
2022/11/08 10:18:35;;;;;;;19.40;1.65;;;11.50;99.90;;;;;;5009834;28;20053;-62
2022/11/08 10:21:12;;;;;;;14.23;2.50;;;11.60;99.90;;;;;;5011632;28;20044;-69
2022/11/08 10:23:59;;;;;;;18.50;2.00;;;11.50;99.90;;;;;;5021125;28;20600;-74
2022/11/08 10:26:41;;;;;;;25.52;3.63;;;11.60;99.90;;;;;;5008552;28;20426;-71
2022/11/08 10:29:14;;;;;;;14.73;1.60;;;11.60;99.90;;;;;;5023651;28;20056;-60
2022/11/08 10:31:51;;;;;;;18.58;4.63;;;11.60;99.90;;;;;;5026301;28;20048;-67
2022/11/08 10:34:24;;;;;;;20.40;2.60;;;11.60;99.90;;;;;;5016821;28;20046;-59
2022/11/08 10:37:01;;;;;;;15.23;2.70;;;11.70;99.90;;;;;;5016917;28;20045;-60
2022/11/08 10:39:36;;;;;;;15.32;2.28;;;11.60;99.90;;;;;;5013309;28;20430;-62
2022/11/08 10:42:22;;;;;;;18.98;3.25;;;11.70;99.90;;;;;;5008251;28;20042;-69
2022/11/08 10:44:50;;;;;;;18.58;3.25;;;11.70;99.90;;;;;;5026786;28;20037;-61
2022/11/08 10:47:25;;;;;;;24.55;2.58;;;11.70;99.90;;;;;;5026547;28;20060;-59
2022/11/08 10:49:54;;;;;;;19.67;2.10;;;11.70;99.90;;;;;;5023118;28;20050;-60
2022/11/08 10:53:08;;;;;;;20.95;3.28;;;11.70;99.90;;;;;;5022654;28;20045;-70
2022/11/08 10:55:47;;;;;;;23.17;3.25;;;11.70;99.90;;;;;;5019023;28;20056;-61
2022/11/08 10:58:38;;;;;;;16.50;1.83;;;11.60;99.90;;;;;;5026352;28;20060;-61
2022/11/08 11:01:19;;;;;;;18.88;1.85;;;11.50;99.90;;;;;;5017880;28;20422;-61
2022/11/08 11:03:49;;;;;;;11.75;1.27;;;11.30;99.90;;;;;;5020056;28;20065;-60
2022/11/08 11:06:28;;;;;;;21.90;2.22;;;11.30;99.90;;;;;;5014578;28;20049;-61
2022/11/08 11:09:16;;;;;;;19.95;2.30;;;11.20;99.90;;;;;;5017855;28;20045;-60
2022/11/08 11:11:44;;;;;;;21.48;3.25;;;11.20;99.90;;;;;;5024131;28;20052;-69
2022/11/08 11:14:17;;;;;;;27.73;3.70;;;11.20;99.90;;;;;;5020930;28;20489;-60
2022/11/08 11:17:14;;;;;;;23.13;2.60;;;11.20;99.90;;;;;;5024288;28;20875;-64
2022/11/08 11:19:53;;;;;;;16.73;2.50;;;11.20;99.90;;;;;;5022909;28;20050;-61
2022/11/08 11:22:33;;;;;;;14.55;4.57;;;11.20;99.90;;;;;;5024671;28;20053;-62
2022/11/08 11:25:15;;;;;;;19.75;5.18;;;11.20;99.90;;;;;;5025386;28;20397;-60
2022/11/08 11:27:57;;;;;;;20.70;4.18;;;11.20;99.90;;;;;;5021016;28;20041;-61
2022/11/08 11:30:30;;;;;;;16.70;2.40;;;11.20;99.90;;;;;;5008345;28;20050;-62
2022/11/08 11:32:58;;;;;;;13.95;2.05;;;11.30;99.90;;;;;;5014873;28;20061;-60
2022/11/08 11:35:33;;;;;;;17.27;2.45;;;11.30;99.90;;;;;;5027813;28;20046;-60
2022/11/08 11:38:06;;;;;;;15.00;2.00;;;11.30;99.90;;;;;;5019581;28;20068;-60
2022/11/08 11:40:39;;;;;;;12.15;2.53;;;11.30;99.90;;;;;;5025083;28;20052;-60
2022/11/08 11:43:42;;;;;;;12.48;1.73;;;11.30;99.90;;;;;;5027529;28;20044;-61
2022/11/08 11:46:19;;;;;;;9.43;1.67;;;11.30;99.90;;;;;;5027726;28;20041;-64
2022/11/08 11:48:58;;;;;;;15.95;2.42;;;11.40;99.90;;;;;;5027693;28;20057;-62
2022/11/08 11:51:28;;;;;;;11.25;1.70;;;11.40;99.90;;;;;;5026328;28;20053;-64
2022/11/08 11:54:01;;;;;;;6.13;1.65;;;11.30;99.90;;;;;;5023918;28;20042;-68
2022/11/08 11:56:44;;;;;;;10.38;0.98;;;11.30;99.90;;;;;;5023185;28;20048;-61
2022/11/08 11:59:37;;;;;;;4.20;0.57;;;11.30;99.90;;;;;;5027508;28;20049;-64
2022/11/08 12:02:17;;;;;;;11.05;1.13;;;11.50;99.90;;;;;;5007665;28;20046;-60
2022/11/08 12:05:10;;;;;;;8.55;1.40;;;11.80;99.90;;;;;;5018510;28;20049;-63
2022/11/08 12:07:58;;;;;;;10.95;1.70;;;11.90;99.90;;;;;;5010078;28;20041;-70
2022/11/08 12:10:48;;;;;;;4.68;0.88;;;11.80;99.90;;;;;;5027439;28;20068;-71
2022/11/08 12:13:34;;;;;;;;;;;11.80;99.90;;;;;;5027567;28;20042;-71
2022/11/08 12:16:16;;;;;;;4.20;0.95;;;11.60;99.90;;;;;;5029123;28;19929;-72
2022/11/08 12:19:26;;;;;;;2.22;0.52;;;11.50;99.90;;;;;;5026289;28;20053;-68
2022/11/08 12:22:27;;;;;;;3.00;0.63;;;11.30;99.90;;;;;;5019917;28;20080;-67
2022/11/08 12:25:33;;;;;;;3.70;0.43;;;11.10;99.90;;;;;;5014694;28;20053;-59
2022/11/08 12:28:18;;;;;;;2.15;0.50;;;10.90;99.90;;;;;;5020146;28;20049;-60
2022/11/08 12:30:57;;;;;;;2.88;0.40;;;10.80;99.90;;;;;;5030774;28;20042;-61
2022/11/08 12:33:25;;;;;;;5.40;1.67;;;10.90;99.90;;;;;;5028344;28;20057;-64
2022/11/08 12:36:23;;;;;;;5.03;0.43;;;11.30;99.90;;;;;;5028527;28;20068;-62
2022/11/08 12:39:15;;;;;;;3.70;0.70;;;12.20;99.90;;;;;;5011416;28;20061;-61
2022/11/08 12:42:21;;;;;;;5.13;1.25;;;12.50;99.90;;;;;;5009528;28;20041;-64
2022/11/08 12:45:14;;;;;;;4.55;0.98;;;12.30;99.90;;;;;;5024208;28;20049;-62
2022/11/08 12:48:19;;;;;;;2.78;0.60;;;12.30;99.90;;;;;;5027981;28;20049;-64
2022/11/08 12:50:50;;;;;;;3.15;1.10;;;11.90;99.90;;;;;;5018748;28;20050;-63
2022/11/08 12:53:20;;;;;;;7.32;1.85;;;11.80;99.90;;;;;;5020431;28;20049;-61
2022/11/08 12:55:53;;;;;;;4.40;0.70;;;11.70;99.90;;;;;;5018338;28;20057;-60
2022/11/08 12:58:26;;;;;;;8.18;1.00;;;11.50;99.90;;;;;;5018839;28;20041;-64
2022/11/08 13:01:10;;;;;;;8.95;1.13;;;11.50;99.90;;;;;;5010405;28;20052;-63
2022/11/08 13:03:48;;;;;;;6.95;1.27;;;11.30;99.90;;;;;;5020327;28;20049;-70
2022/11/08 13:06:24;;;;;;;5.07;1.98;;;11.30;99.90;;;;;;5011688;28;20052;-73
2022/11/08 13:08:52;;;;;;;2.72;0.52;;;11.20;99.90;;;;;;5012669;28;20057;-73
2022/11/08 13:11:54;;;;;;;2.40;0.50;;;11.20;99.90;;;;;;5013170;28;20049;-74
2022/11/08 13:14:23;;;;;;;2.60;0.30;;;11.40;99.90;;;;;;5021967;28;20405;-73
2022/11/08 13:17:25;;;;;;;2.10;1.08;;;11.40;99.90;;;;;;5016782;28;20042;-74
2022/11/08 13:19:56;;;;;;;1.75;0.28;;;11.70;99.90;;;;;;5022572;28;20394;-67
2022/11/08 13:22:33;;;;;;;5.03;0.70;;;11.80;99.90;;;;;;5028468;28;20046;-65
2022/11/08 13:25:02;;;;;;;4.40;0.57;;;12.00;99.90;;;;;;5022621;28;20045;-62
2022/11/08 13:27:43;;;;;;;4.93;0.90;;;12.60;99.90;;;;;;5017692;28;20064;-60
2022/11/08 13:30:12;;;;;;;3.67;0.50;;;13.50;99.90;;;;;;5029526;28;20053;-68
2022/11/08 13:33:00;;;;;;;5.63;0.43;;;13.80;99.90;;;;;;5029697;28;20041;-61
2022/11/08 13:35:39;;;;;;;2.25;0.30;;;13.80;99.90;;;;;;5018364;28;20404;-61
2022/11/08 13:38:20;;;;;;;6.38;0.90;;;13.50;99.90;;;;;;5028580;28;20054;-65